Time;durP1;ratioP1;P1;durP2;ratioP2;P2;SDS_P1;SDS_P2;PMS_P1;PMS_P2;Temp;Humidity;BMP_temperature;BMP_pressure;BME280_temperature;BME280_humidity;BME280_pressure;Samples;Min_cycle;Max_cycle;Signal;HPM_P1;HPM_P2
2023/04/18 00:02:05;;;;;;;9.43;7.20;;;;;;;12.94;100.00;100113.34;5088653;28;20777;-70
2023/04/18 00:04:32;;;;;;;8.80;7.00;;;;;;;12.93;100.00;100108.13;5088728;28;20027;-70
2023/04/18 00:06:58;;;;;;;8.48;7.30;;;;;;;12.77;100.00;100087.28;5070303;28;20051;-71
2023/04/18 00:09:24;;;;;;;8.35;6.70;;;;;;;12.91;100.00;100110.13;5070593;28;20522;-70
2023/04/18 00:11:50;;;;;;;9.82;6.95;;;;;;;12.83;100.00;100099.28;5088192;28;20114;-70
2023/04/18 00:14:15;;;;;;;9.15;7.05;;;;;;;12.82;100.00;100092.19;5088306;28;20070;-71
2023/04/18 00:16:41;;;;;;;8.27;6.25;;;;;;;12.91;100.00;100110.13;5087883;28;20081;-70
2023/04/18 00:19:07;;;;;;;8.30;6.25;;;;;;;12.70;100.00;100074.56;5088368;28;20578;-71
2023/04/18 00:21:33;;;;;;;7.55;6.32;;;;;;;12.88;100.00;100116.66;5087721;28;20048;-70
2023/04/18 00:23:59;;;;;;;7.93;5.63;;;;;;;12.85;100.00;100118.81;5088480;28;20032;-70
2023/04/18 00:26:25;;;;;;;6.35;5.38;;;;;;;12.85;100.00;100126.88;5088045;28;20526;-71
2023/04/18 00:28:51;;;;;;;7.97;5.93;;;;;;;12.82;100.00;100127.19;5087638;28;20060;-70
2023/04/18 00:31:16;;;;;;;8.77;5.32;;;;;;;12.77;100.00;100118.75;5087901;28;20062;-69
2023/04/18 00:33:42;;;;;;;7.88;5.32;;;;;;;12.77;100.00;100124.94;5069384;28;20047;-70
2023/04/18 00:36:07;;;;;;;7.05;5.30;;;;;;;12.78;100.00;100133.88;5087945;28;20031;-70
2023/04/18 00:38:33;;;;;;;8.35;5.82;;;;;;;12.73;100.00;100114.63;5087569;28;20032;-70
2023/04/18 00:40:59;;;;;;;6.93;5.45;;;;;;;12.73;100.00;100123.56;5088165;28;20035;-70
2023/04/18 00:43:25;;;;;;;6.32;5.43;;;;;;;12.76;100.00;100119.72;5087464;28;20434;-71
2023/04/18 00:45:51;;;;;;;8.30;5.75;;;;;;;12.73;100.00;100120.03;5087199;28;20040;-70
2023/04/18 00:48:17;;;;;;;7.55;5.72;;;;;;;12.70;100.00;100123.88;5087694;28;20035;-70
2023/04/18 00:50:42;;;;;;;8.05;5.38;;;;;;;12.67;100.00;100115.28;5087403;28;20028;-70
2023/04/18 00:53:12;;;;;;;9.27;5.97;;;;;;;12.56;100.00;100102.03;5087580;28;20031;-71
2023/04/18 00:55:38;;;;;;;6.28;5.18;;;;;;;12.56;100.00;100096.66;5087172;28;20032;-70
2023/04/18 00:58:03;;;;;;;8.18;5.55;;;;;;;12.45;100.00;100086.13;5087333;28;20085;-70
2023/04/18 01:00:29;;;;;;;8.00;5.68;;;;;;;12.40;100.00;100080.34;5087890;28;20036;-70
2023/04/18 01:02:55;;;;;;;8.60;5.55;;;;;;;12.49;100.00;100095.56;5087110;28;20027;-70
2023/04/18 01:05:21;;;;;;;8.40;5.95;;;;;;;12.52;100.00;100095.28;5086263;28;20038;-70
2023/04/18 01:07:47;;;;;;;6.82;5.40;;;;;;;12.65;100.00;100112.75;5087141;28;20106;-71
2023/04/18 01:10:13;;;;;;;6.97;5.88;;;;;;;12.65;100.00;100114.56;5087134;28;20475;-70
2023/04/18 01:12:38;;;;;;;7.63;5.53;;;;;;;12.60;100.00;100108.78;5086855;28;20123;-71
2023/04/18 01:15:05;;;;;;;6.30;5.10;;;;;;;12.62;100.00;100113.03;5087318;28;20060;-70
2023/04/18 01:17:33;;;;;;;10.48;5.30;;;;;;;12.39;100.00;100070.59;5087270;28;20111;-70
2023/04/18 01:20:00;;;;;;;6.93;5.38;;;;;;;12.52;100.00;100095.28;5086707;28;20404;-71
2023/04/18 01:22:27;;;;;;;6.82;5.57;;;;;;;12.60;100.00;100120.41;5087139;28;20501;-70
2023/04/18 01:24:52;;;;;;;7.85;5.78;;;;;;;12.61;100.00;100115.88;5086954;28;20036;-70
2023/04/18 01:27:18;;;;;;;8.25;5.85;;;;;;;12.44;100.00;100090.66;5087062;28;20168;-71
2023/04/18 01:29:43;;;;;;;7.22;5.65;;;;;;;12.47;100.00;100093.03;5086568;28;20033;-70
2023/04/18 01:32:09;;;;;;;8.80;5.88;;;;;;;12.60;100.00;100112.34;5068619;28;20118;-70
2023/04/18 01:34:34;;;;;;;7.93;5.75;;;;;;;12.61;100.00;100113.19;5087110;28;20776;-70
2023/04/18 01:37:00;;;;;;;7.00;5.82;;;;;;;12.60;100.00;100114.16;5068978;28;20059;-70
2023/04/18 01:39:26;;;;;;;7.72;5.80;;;;;;;12.65;100.00;100125.34;5086890;28;20024;-70
2023/04/18 01:41:51;;;;;;;6.97;5.63;;;;;;;12.56;100.00;100110.09;5086290;28;20019;-70
2023/04/18 01:44:17;;;;;;;6.50;5.30;;;;;;;12.60;100.00;100114.16;5086793;28;20108;-69
2023/04/18 01:46:42;;;;;;;6.72;5.28;;;;;;;12.59;100.00;100116.03;5086263;28;20081;-68
2023/04/18 01:49:08;;;;;;;8.80;6.05;;;;;;;12.60;100.00;100116.84;5086218;28;20104;-70
2023/04/18 01:51:34;;;;;;;8.10;5.78;;;;;;;12.57;100.00;100112.63;5087014;28;20084;-71
2023/04/18 01:53:59;;;;;;;7.32;5.65;;;;;;;12.44;100.00;100087.09;5086525;28;20436;-70
2023/04/18 01:56:25;;;;;;;5.85;5.05;;;;;;;12.48;100.00;100102.78;5086647;28;20239;-71
2023/04/18 01:58:51;;;;;;;7.80;5.90;;;;;;;12.50;100.00;100106.19;5086450;28;20024;-71
2023/04/18 02:01:16;;;;;;;7.22;5.40;;;;;;;12.37;100.00;100081.50;5086495;28;20034;-71
2023/04/18 02:03:42;;;;;;;7.63;5.45;;;;;;;12.49;100.00;100100.94;5085995;28;20028;-70
2023/04/18 02:06:07;;;;;;;9.77;6.20;;;;;;;12.53;100.00;100108.56;5086374;28;20070;-70
2023/04/18 02:08:34;;;;;;;9.77;5.35;;;;;;;12.52;100.00;100120.34;5068412;28;20031;-71
2023/04/18 02:11:00;;;;;;;7.10;5.30;;;;;;;12.52;100.00;100127.53;5067504;28;20117;-71
2023/04/18 02:13:26;;;;;;;7.97;5.43;;;;;;;12.44;100.00;100114.00;5086365;28;20081;-70
2023/04/18 02:15:52;;;;;;;8.73;5.57;;;;;;;12.49;100.00;100122.47;5087579;28;20032;-70
2023/04/18 02:18:17;;;;;;;6.72;5.25;;;;;;;12.52;100.00;100130.25;5089998;28;20032;-70
2023/04/18 02:20:43;;;;;;;6.82;6.00;;;;;;;12.51;100.00;100123.19;5090050;28;20044;-71
2023/04/18 02:23:09;;;;;;;8.35;6.15;;;;;;;12.50;100.00;100134.91;5089929;28;20049;-71
2023/04/18 02:25:35;;;;;;;8.63;6.20;;;;;;;12.52;100.00;100128.41;5090612;28;20093;-70
2023/04/18 02:28:00;;;;;;;8.48;6.00;;;;;;;12.40;100.00;100113.47;5089859;28;20037;-70
2023/04/18 02:30:26;;;;;;;8.32;5.50;;;;;;;12.48;100.00;100128.84;5090178;28;20687;-71
2023/04/18 02:32:55;;;;;;;7.10;6.07;;;;;;;12.46;100.00;100120.94;5089867;28;20031;-71
2023/04/18 02:35:22;;;;;;;7.95;5.75;;;;;;;12.46;100.00;100129.00;5089812;28;20106;-71
2023/04/18 02:37:47;;;;;;;6.47;5.78;;;;;;;12.40;100.00;100107.22;5090051;28;20040;-71
2023/04/18 02:40:13;;;;;;;10.77;5.68;;;;;;;12.41;100.00;100114.31;5089959;28;20020;-70
2023/04/18 02:42:39;;;;;;;9.57;5.65;;;;;;;12.44;100.00;100124.75;5089937;28;20089;-70
2023/04/18 02:45:05;;;;;;;9.52;6.35;;;;;;;12.37;100.00;100116.47;5090504;28;20111;-71
2023/04/18 02:47:31;;;;;;;7.68;6.18;;;;;;;12.26;100.00;100105.06;5089590;28;20030;-71
2023/04/18 02:49:56;;;;;;;8.25;6.10;;;;;;;12.40;100.00;100124.22;5089550;28;20040;-70
2023/04/18 02:52:22;;;;;;;7.63;6.25;;;;;;;12.44;100.00;100127.44;5089647;28;20065;-71
2023/04/18 02:54:47;;;;;;;8.65;6.55;;;;;;;12.24;100.00;100099.84;5089238;28;20040;-71
2023/04/18 02:57:13;;;;;;;9.43;6.00;;;;;;;12.41;100.00;100127.78;5089569;28;20035;-71
2023/04/18 02:59:38;;;;;;;9.48;6.15;;;;;;;12.39;100.00;100127.91;5089382;28;20024;-70
2023/04/18 03:02:04;;;;;;;8.52;5.93;;;;;;;12.41;100.00;100130.47;5089852;28;20754;-71
2023/04/18 03:04:30;;;;;;;7.50;6.45;;;;;;;12.32;100.00;100120.59;5089253;28;20061;-71
2023/04/18 03:06:58;;;;;;;8.90;6.88;;;;;;;12.23;100.00;100108.91;5089332;28;20077;-71
2023/04/18 03:09:24;;;;;;;8.73;5.80;;;;;;;12.36;100.00;100125.53;5070961;28;20040;-71
2023/04/18 03:11:49;;;;;;;7.80;5.40;;;;;;;12.41;100.00;100135.84;5088934;28;20028;-71
2023/04/18 03:14:15;;;;;;;8.68;6.30;;;;;;;12.39;100.00;100129.75;5089286;28;20038;-68
2023/04/18 03:16:40;;;;;;;6.90;5.90;;;;;;;12.24;100.00;100105.22;5089068;28;20507;-68
2023/04/18 03:19:06;;;;;;;7.03;5.55;;;;;;;12.37;100.00;100127.22;5089019;28;20092;-68
2023/04/18 03:21:31;;;;;;;8.00;6.00;;;;;;;12.19;100.00;100102.13;5088344;28;20565;-68
2023/04/18 03:23:57;;;;;;;8.73;5.72;;;;;;;12.36;100.00;100125.53;5088236;28;20039;-68
2023/04/18 03:26:23;;;;;;;6.80;5.90;;;;;;;12.38;100.00;100133.44;5068248;28;20032;-68
2023/04/18 03:28:48;;;;;;;9.48;5.57;;;;;;;12.11;100.00;100093.97;5087194;28;20085;-68
2023/04/18 03:31:14;;;;;;;7.75;6.40;;;;;;;12.35;100.00;100141.81;5088722;28;20186;-69
2023/04/18 03:33:41;;;;;;;8.23;6.70;;;;;;;12.32;100.00;100134.88;5088863;28;20754;-69
2023/04/18 03:36:07;;;;;;;9.32;6.55;;;;;;;12.32;100.00;100132.19;5089301;28;20119;-68
2023/04/18 03:38:32;;;;;;;8.90;6.63;;;;;;;12.32;100.00;100139.44;5088574;28;20042;-68
2023/04/18 03:40:58;;;;;;;8.68;5.90;;;;;;;12.30;100.00;100134.19;5087919;28;20024;-68
2023/04/18 03:43:23;;;;;;;7.57;5.50;;;;;;;12.27;100.00;100130.94;5071091;28;20103;-68
2023/04/18 03:45:49;;;;;;;8.68;5.90;;;;;;;12.28;100.00;100138.03;5088019;28;20024;-68
2023/04/18 03:48:15;;;;;;;9.20;6.40;;;;;;;12.28;100.00;100129.97;5087731;28;20556;-68
2023/04/18 03:50:40;;;;;;;6.75;5.63;;;;;;;12.11;100.00;100111.94;5087853;28;20031;-68
2023/04/18 03:53:06;;;;;;;9.30;6.88;;;;;;;12.23;100.00;100137.63;5089042;28;20020;-68
2023/04/18 03:55:32;;;;;;;8.38;5.90;;;;;;;12.18;100.00;100138.06;5087993;28;20387;-68
2023/04/18 03:57:58;;;;;;;8.43;6.53;;;;;;;12.15;100.00;100133.00;5087791;28;20040;-68
2023/04/18 04:00:24;;;;;;;8.07;6.13;;;;;;;12.19;100.00;100141.63;5090351;28;20048;-68
2023/04/18 04:02:50;;;;;;;9.40;6.22;;;;;;;12.14;100.00;100141.22;5088205;28;20024;-68
2023/04/18 04:05:15;;;;;;;7.85;6.28;;;;;;;11.95;100.00;100112.56;5088040;28;20023;-68
2023/04/18 04:07:41;;;;;;;8.73;6.63;;;;;;;12.14;100.00;100144.75;5088046;28;20539;-68
2023/04/18 04:10:07;;;;;;;7.80;5.90;;;;;;;12.19;100.00;100149.69;5088531;28;20032;-68
2023/04/18 04:12:32;;;;;;;8.27;6.80;;;;;;;12.11;100.00;100144.19;5087858;28;20495;-68
2023/04/18 04:14:58;;;;;;;7.60;6.15;;;;;;;11.99;100.00;100124.72;5088035;28;20024;-69
2023/04/18 04:17:23;;;;;;;7.70;5.20;;;;;;;12.18;100.00;100162.28;5087964;28;20696;-68
2023/04/18 04:19:50;;;;;;;7.35;5.90;;;;;;;12.18;100.00;100161.41;5087730;28;20012;-68
2023/04/18 04:22:15;;;;;;;8.02;5.93;;;;;;;12.18;100.00;100161.41;5069684;28;20032;-68
2023/04/18 04:24:41;;;;;;;6.90;5.90;;;;;;;12.09;100.00;100146.19;5087456;28;20024;-68
2023/04/18 04:27:07;;;;;;;8.00;6.10;;;;;;;12.05;100.00;100142.94;5086854;28;20103;-68
2023/04/18 04:29:34;;;;;;;7.72;5.70;;;;;;;12.13;100.00;100163.72;5071533;28;20079;-68
2023/04/18 04:31:59;;;;;;;7.88;5.95;;;;;;;12.17;100.00;100170.47;5093903;28;20108;-68
2023/04/18 04:34:25;;;;;;;11.63;6.20;;;;;;;12.14;100.00;100155.50;5092939;28;20042;-68
2023/04/18 04:36:52;;;;;;;8.00;5.93;;;;;;;12.17;100.00;100168.66;5089540;28;20108;-68
2023/04/18 04:39:18;;;;;;;9.45;6.32;;;;;;;12.18;100.00;100166.78;5069305;28;20023;-68
2023/04/18 04:41:45;;;;;;;8.70;5.10;;;;;;;12.08;100.00;100161.47;5086799;28;20036;-68
2023/04/18 04:44:11;;;;;;;8.23;5.90;;;;;;;12.21;100.00;100178.09;5068589;28;20027;-68
2023/04/18 04:46:39;;;;;;;9.23;5.90;;;;;;;12.00;100.00;100147.94;5068824;28;20027;-68
2023/04/18 04:49:05;;;;;;;6.85;5.53;;;;;;;12.22;100.00;100178.97;5085856;28;20050;-68
2023/04/18 04:51:31;;;;;;;7.25;5.43;;;;;;;12.24;100.00;100179.66;5068799;28;20032;-68
2023/04/18 04:53:56;;;;;;;7.65;4.90;;;;;;;12.23;100.00;100184.19;5085827;28;20407;-68
2023/04/18 04:56:22;;;;;;;7.75;5.60;;;;;;;11.90;100.00;100125.59;5086788;28;20120;-68
2023/04/18 04:58:48;;;;;;;7.93;5.60;;;;;;;12.14;100.00;100170.78;5087166;28;20036;-68
2023/04/18 05:01:15;;;;;;;9.48;5.80;;;;;;;12.27;100.00;100190.09;5087255;28;20051;-68
2023/04/18 05:03:41;;;;;;;8.63;5.30;;;;;;;12.28;100.00;100191.81;5087101;28;20494;-68
2023/04/18 05:06:07;;;;;;;10.70;5.65;;;;;;;12.23;100.00;100177.97;5086693;28;20016;-68
2023/04/18 05:08:32;;;;;;;7.85;5.43;;;;;;;12.16;100.00;100168.81;5087150;28;20541;-71
2023/04/18 05:10:58;;;;;;;7.93;5.40;;;;;;;12.28;100.00;100189.13;5086696;28;20114;-71
2023/04/18 05:13:23;;;;;;;8.65;5.63;;;;;;;12.31;100.00;100196.88;5086768;28;20024;-71
2023/04/18 05:15:50;;;;;;;7.32;5.38;;;;;;;12.29;100.00;100194.34;5084046;28;20035;-70
2023/04/18 05:18:16;;;;;;;7.10;4.72;;;;;;;12.33;100.00;100200.28;5066499;28;20408;-71
2023/04/18 05:20:42;;;;;;;9.18;5.88;;;;;;;12.35;100.00;100195.59;5084090;28;20028;-71
2023/04/18 05:23:07;;;;;;;7.40;5.10;;;;;;;12.37;100.00;100198.97;5080535;28;20030;-70
2023/04/18 05:25:33;;;;;;;9.40;5.07;;;;;;;12.42;100.00;100205.63;5084565;28;20484;-71
2023/04/18 05:28:03;;;;;;;7.88;5.28;;;;;;;12.40;100.00;100207.59;5086487;28;20043;-71
2023/04/18 05:30:29;;;;;;;9.38;5.25;;;;;;;12.40;100.00;100206.75;5078503;28;20027;-71
2023/04/18 05:32:55;;;;;;;5.00;3.97;;;;;;;12.44;100.00;100205.44;5085269;28;20036;-71
2023/04/18 05:35:20;;;;;;;6.22;4.70;;;;;;;12.38;100.00;100206.06;5083809;28;20039;-72
2023/04/18 05:37:46;;;;;;;5.90;4.22;;;;;;;12.43;100.00;100215.38;5086395;28;20020;-72
2023/04/18 05:40:12;;;;;;;6.93;4.70;;;;;;;12.41;100.00;100206.59;5087134;28;20024;-72
2023/04/18 05:42:38;;;;;;;6.68;4.68;;;;;;;12.53;100.00;100226.94;5086587;28;20031;-72
2023/04/18 05:45:03;;;;;;;6.78;4.70;;;;;;;12.51;100.00;100222.72;5086316;28;20040;-71
2023/04/18 05:47:29;;;;;;;6.85;4.70;;;;;;;12.52;100.00;100222.56;5086433;28;20032;-71
2023/04/18 05:49:55;;;;;;;6.40;4.43;;;;;;;12.54;100.00;100234.00;5083045;28;20565;-70
2023/04/18 05:52:20;;;;;;;5.35;4.43;;;;;;;12.54;100.00;100222.41;5086348;28;20107;-71
2023/04/18 05:54:46;;;;;;;6.63;4.82;;;;;;;12.50;100.00;100212.91;5085658;28;20024;-70
2023/04/18 05:57:11;;;;;;;6.90;4.63;;;;;;;12.45;100.00;100209.84;5068507;28;20020;-70
2023/04/18 05:59:36;;;;;;;6.72;4.55;;;;;;;12.60;100.00;100232.53;5086422;28;20043;-70
2023/04/18 06:02:02;;;;;;;6.05;4.40;;;;;;;12.49;100.00;100213.94;5068016;28;20024;-70
2023/04/18 06:04:27;;;;;;;7.05;4.82;;;;;;;12.59;100.00;100236.25;5085973;28;20036;-70
2023/04/18 06:06:53;;;;;;;6.13;4.45;;;;;;;12.62;100.00;100241.34;5081088;28;20049;-70
2023/04/18 06:09:19;;;;;;;5.88;4.57;;;;;;;12.55;99.88;100229.47;5084418;28;20107;-71
2023/04/18 06:11:44;;;;;;;5.53;4.13;;;;;;;12.55;99.87;100224.09;5084888;28;20081;-70
2023/04/18 06:14:10;;;;;;;7.03;4.40;;;;;;;12.63;100.00;100233.13;5067867;28;20048;-70
2023/04/18 06:16:36;;;;;;;7.78;4.10;;;;;;;12.58;98.78;100221.94;5085114;28;20038;-70
2023/04/18 06:19:02;;;;;;;5.10;3.55;;;;;;;12.72;98.88;100239.44;5085013;28;20480;-71
2023/04/18 06:21:27;;;;;;;6.47;3.97;;;;;;;12.73;99.19;100238.44;5085912;28;20101;-70
2023/04/18 06:23:53;;;;;;;4.90;3.53;;;;;;;12.59;99.43;100222.78;5085727;28;20020;-70
2023/04/18 06:26:19;;;;;;;6.40;4.13;;;;;;;12.76;98.48;100243.50;4723522;28;10000524;-67
2023/04/18 06:28:44;;;;;;;6.47;3.47;;;;;;;12.74;98.02;100240.16;5075170;28;20119;-68
2023/04/18 06:31:10;;;;;;;4.88;3.15;;;;;;;12.80;98.43;100245.75;5079391;28;20036;-68
2023/04/18 06:33:36;;;;;;;3.85;3.13;;;;;;;12.84;97.63;100254.38;5078301;28;20028;-68
2023/04/18 06:36:02;;;;;;;3.60;2.78;;;;;;;12.83;97.46;100247.31;5079162;28;20028;-67
2023/04/18 06:38:28;;;;;;;5.28;2.75;;;;;;;12.79;97.33;100244.06;5079319;28;20032;-67
2023/04/18 06:40:53;;;;;;;3.35;2.83;;;;;;;12.80;97.01;100250.31;5077450;28;20348;-70
2023/04/18 06:43:20;;;;;;;4.13;3.08;;;;;;;12.89;96.53;100257.47;5067923;28;20042;-70
2023/04/18 06:45:46;;;;;;;5.07;2.67;;;;;;;12.79;97.12;100233.31;5075247;28;20056;-70
2023/04/18 06:48:12;;;;;;;3.10;2.70;;;;;;;12.90;97.26;100251.91;5061994;28;20490;-70
2023/04/18 06:50:37;;;;;;;4.75;2.90;;;;;;;12.98;97.04;100251.16;4726786;28;9999692;-70
2023/04/18 06:53:03;;;;;;;4.97;2.83;;;;;;;12.99;97.15;100244.81;5061620;28;20081;-70
2023/04/18 06:55:28;;;;;;;3.70;2.90;;;;;;;13.12;96.10;100256.91;5079144;28;20036;-70
2023/04/18 06:57:53;;;;;;;4.82;2.92;;;;;;;13.16;96.48;100258.31;4711794;28;10000051;-71
2023/04/18 07:00:19;;;;;;;5.60;2.90;;;;;;;13.22;94.85;100267.63;5081458;28;20032;-71
2023/04/18 07:02:45;;;;;;;5.97;2.88;;;;;;;13.25;94.22;100253.84;5084259;28;20032;-71
2023/04/18 07:05:10;;;;;;;4.45;2.40;;;;;;;13.29;94.02;100260.63;5084852;28;20804;-71
2023/04/18 07:07:36;;;;;;;5.68;2.60;;;;;;;13.34;93.38;100267.25;5085102;28;20028;-70
2023/04/18 07:10:01;;;;;;;2.53;2.13;;;;;;;13.32;92.97;100269.25;5085053;28;20020;-70
2023/04/18 07:12:27;;;;;;;4.68;2.25;;;;;;;13.22;92.65;100252.31;5084023;28;20608;-70
2023/04/18 07:14:53;;;;;;;4.50;2.10;;;;;;;13.34;92.17;100269.09;5083878;28;20047;-70
2023/04/18 07:17:19;;;;;;;4.07;2.08;;;;;;;13.36;91.98;100277.88;5084244;28;20035;-70
2023/04/18 07:19:45;;;;;;;2.45;1.90;;;;;;;13.34;92.13;100272.63;5084047;28;20527;-70
2023/04/18 07:22:10;;;;;;;3.13;2.10;;;;;;;13.32;94.27;100276.50;5083919;28;20032;-71
2023/04/18 07:24:37;;;;;;;5.20;2.05;;;;;;;13.31;96.19;100277.47;5087168;28;20027;-71
2023/04/18 07:27:03;;;;;;;3.75;2.17;;;;;;;13.33;97.22;100272.78;5087414;28;20027;-71
2023/04/18 07:29:29;;;;;;;2.80;2.30;;;;;;;13.37;97.43;100288.50;5090036;28;20042;-71
2023/04/18 07:31:54;;;;;;;5.57;2.40;;;;;;;13.35;97.22;100285.09;5086096;28;20039;-71
2023/04/18 07:34:21;;;;;;;3.00;2.13;;;;;;;13.37;97.12;100287.63;5067160;28;20113;-71
2023/04/18 07:36:47;;;;;;;3.85;2.35;;;;;;;13.30;98.13;100267.72;5085384;28;22673;-71
2023/04/18 07:39:13;;;;;;;2.60;2.25;;;;;;;13.17;99.36;100246.56;5088481;28;20020;-70
2023/04/18 07:41:38;;;;;;;3.95;2.22;;;;;;;13.24;99.03;100262.94;5089759;28;20467;-71
2023/04/18 07:44:04;;;;;;;6.18;2.72;;;;;;;13.23;98.67;100256.69;5083670;28;20547;-71
2023/04/18 07:46:31;;;;;;;2.67;2.28;;;;;;;13.48;98.82;100287.44;5083824;28;20036;-71
2023/04/18 07:48:57;;;;;;;4.28;2.45;;;;;;;13.59;99.29;100287.19;5083863;28;20040;-71
2023/04/18 07:51:25;;;;;;;4.25;2.83;;;;;;;13.74;97.14;100275.69;5083133;28;20063;-71
2023/04/18 07:53:51;;;;;;;3.00;2.30;;;;;;;13.81;97.36;100286.72;5079484;28;20054;-71
2023/04/18 07:56:16;;;;;;;3.55;2.30;;;;;;;13.94;98.06;100294.38;5080156;28;20028;-71
2023/04/18 07:58:41;;;;;;;5.50;2.67;;;;;;;14.02;97.40;100289.06;5082989;28;20027;-71
2023/04/18 08:01:12;;;;;;;3.63;2.53;;;;;;;14.14;96.55;100293.19;5082850;28;20112;-71
2023/04/18 08:03:37;;;;;;;6.53;3.08;;;;;;;14.18;95.15;100276.53;5066218;28;20024;-72
2023/04/18 08:06:04;;;;;;;3.33;2.55;;;;;;;14.49;93.08;100288.56;5071833;28;20094;-72
2023/04/18 08:08:30;;;;;;;3.17;2.47;;;;;;;14.78;90.87;100288.19;5075019;28;20043;-72
2023/04/18 08:10:55;;;;;;;2.90;2.10;;;;;;;15.20;88.89;100299.84;5074451;28;20040;-72
2023/04/18 08:13:21;;;;;;;3.97;2.50;;;;;;;15.47;83.87;100300.44;5081878;28;20034;-71
2023/04/18 08:15:46;;;;;;;4.72;2.35;;;;;;;15.64;80.75;100307.56;5081488;28;20490;-71
2023/04/18 08:18:12;;;;;;;4.22;2.20;;;;;;;15.65;80.10;100270.56;5080806;28;20387;-71
2023/04/18 08:20:37;;;;;;;3.97;2.75;;;;;;;15.87;78.42;100294.25;5081658;28;20059;-71
2023/04/18 08:23:03;;;;;;;2.80;2.45;;;;;;;15.94;77.59;100304.19;5080951;28;20032;-71
2023/04/18 08:25:30;;;;;;;2.80;2.30;;;;;;;15.93;75.73;100304.38;5082905;28;20459;-71
2023/04/18 08:27:56;;;;;;;7.90;3.92;;;;;;;15.89;76.51;100303.00;5080226;28;20410;-71
2023/04/18 08:30:22;;;;;;;5.63;2.50;;;;;;;15.92;75.96;100307.25;5081165;28;20040;-70
2023/04/18 08:32:48;;;;;;;3.78;2.50;;;;;;;15.93;74.77;100313.31;5079086;28;20039;-71
2023/04/18 08:35:14;;;;;;;3.05;2.10;;;;;;;15.80;73.69;100293.19;5081586;28;20032;-70
2023/04/18 08:37:39;;;;;;;5.75;2.45;;;;;;;15.86;73.18;100315.03;5082221;28;20063;-71
2023/04/18 08:40:07;;;;;;;3.65;1.92;;;;;;;15.68;73.05;100300.78;5082399;28;20483;-70
2023/04/18 08:42:34;;;;;;;3.13;2.10;;;;;;;15.74;74.95;100321.75;5062952;28;20024;-68
2023/04/18 08:45:00;;;;;;;3.03;2.20;;;;;;;15.66;75.11;100313.66;5081355;28;20111;-68
2023/04/18 08:47:28;;;;;;;2.75;2.05;;;;;;;15.57;74.69;100293.03;5082609;28;20028;-68
2023/04/18 08:49:56;;;;;;;5.65;1.95;;;;;;;15.69;75.41;100310.63;5062478;28;20032;-68
2023/04/18 08:52:22;;;;;;;2.22;1.90;;;;;;;15.76;74.83;100322.44;5081101;28;20493;-68
2023/04/18 08:54:48;;;;;;;2.45;1.50;;;;;;;15.69;75.32;100302.50;5081598;28;20023;-69
2023/04/18 08:57:15;;;;;;;4.93;1.92;;;;;;;15.82;74.46;100323.63;5081695;28;20028;-68
2023/04/18 08:59:44;;;;;;;4.75;2.53;;;;;;;15.93;74.10;100328.72;5082047;28;20103;-68
2023/04/18 09:02:12;;;;;;;3.22;1.98;;;;;;;15.93;73.08;100322.47;5082354;28;20047;-68
2023/04/18 09:04:43;;;;;;;2.55;1.85;;;;;;;16.13;71.89;100335.50;5079690;28;20115;-68
2023/04/18 09:07:14;;;;;;;3.50;1.92;;;;;;;16.24;70.89;100329.72;5082156;28;20118;-68
2023/04/18 09:09:49;;;;;;;5.20;2.50;;;;;;;16.43;70.07;100331.25;5081641;28;20032;-69
2023/04/18 09:12:18;;;;;;;4.53;2.72;;;;;;;16.76;69.15;100316.59;5082073;28;20280;-68
2023/04/18 09:14:55;;;;;;;3.92;2.45;;;;;;;17.14;67.40;100321.22;5080864;28;20028;-68
2023/04/18 09:17:41;;;;;;;5.10;2.30;;;;;;;17.43;66.06;100313.28;5063607;28;20132;-68
2023/04/18 09:20:10;;;;;;;4.25;1.92;;;;;;;17.92;63.12;100322.78;5081968;28;20040;-68
2023/04/18 09:23:03;;;;;;;5.88;1.98;;;;;;;18.22;60.97;100310.16;5081887;28;20031;-68
2023/04/18 09:25:28;;;;;;;3.80;2.03;;;;;;;18.57;59.46;100310.34;5076267;28;20074;-68
2023/04/18 09:27:59;;;;;;;3.55;1.92;;;;;;;18.72;60.13;100319.34;5081861;28;20055;-68
2023/04/18 09:30:39;;;;;;;7.07;2.13;;;;;;;18.80;58.60;100321.97;5081970;28;20028;-68
2023/04/18 09:33:08;;;;;;;4.25;2.50;;;;;;;18.78;58.20;100313.16;5081263;28;20019;-68
2023/04/18 09:35:35;;;;;;;2.88;1.85;;;;;;;18.77;57.55;100314.19;5081768;28;20032;-68
2023/04/18 09:38:01;;;;;;;4.50;2.00;;;;;;;18.71;56.76;100311.38;5080944;28;20119;-69
2023/04/18 09:40:27;;;;;;;4.60;2.42;;;;;;;18.72;56.73;100323.94;5081339;28;20099;-68
2023/04/18 09:42:53;;;;;;;2.70;1.50;;;;;;;18.47;56.75;100287.22;5081548;28;20094;-69
2023/04/18 09:45:19;;;;;;;4.45;2.03;;;;;;;18.64;56.81;100313.97;5077509;28;20396;-68
2023/04/18 09:47:45;;;;;;;6.82;2.50;;;;;;;18.64;57.94;100316.69;5073298;28;20061;-69
2023/04/18 09:50:10;;;;;;;6.35;2.38;;;;;;;18.63;58.30;100314.19;5061906;28;20079;-68
2023/04/18 09:52:38;;;;;;;2.95;1.98;;;;;;;18.54;58.28;100310.69;5084738;28;20073;-68
2023/04/18 09:55:06;;;;;;;4.07;1.67;;;;;;;18.54;57.81;100307.97;5083645;28;20047;-69
2023/04/18 09:57:33;;;;;;;4.90;2.30;;;;;;;18.35;57.74;100307.66;5064414;28;20051;-69
2023/04/18 10:00:25;;;;;;;4.60;1.98;;;;;;;18.32;58.15;100310.75;5084060;28;20390;-68
2023/04/18 10:02:57;;;;;;;3.75;1.63;;;;;;;18.42;57.38;100311.34;5082777;28;20035;-68
2023/04/18 10:05:26;;;;;;;6.20;2.22;;;;;;;18.50;56.69;100306.69;5085972;28;20038;-68
2023/04/18 10:07:52;;;;;;;3.15;1.48;;;;;;;18.47;57.00;100309.75;5085595;28;20031;-68
2023/04/18 10:10:18;;;;;;;2.35;1.85;;;;;;;18.57;57.09;100312.22;5085731;28;20074;-69
2023/04/18 10:12:46;;;;;;;5.90;2.03;;;;;;;18.71;56.04;100305.94;5085236;28;20541;-68
2023/04/18 10:15:14;;;;;;;3.35;1.58;;;;;;;18.61;56.90;100313.53;5067134;28;20085;-68
2023/04/18 10:18:01;;;;;;;2.95;1.70;;;;;;;18.53;57.50;100317.16;5085617;28;20044;-68
2023/04/18 10:20:28;;;;;;;5.93;2.15;;;;;;;18.37;57.35;100295.59;5085371;28;20048;-69
2023/04/18 10:22:55;;;;;;;5.20;1.50;;;;;;;18.54;58.16;100324.28;5085904;28;20032;-68
2023/04/18 10:25:48;;;;;;;6.22;1.90;;;;;;;18.61;57.00;100303.53;5085737;28;20044;-71
2023/04/18 10:28:13;;;;;;;2.40;1.73;;;;;;;18.65;56.07;100310.25;5061663;28;20036;-71
2023/04/18 10:30:39;;;;;;;4.03;1.85;;;;;;;18.63;57.41;100311.47;5085577;28;20031;-70
2023/04/18 10:33:29;;;;;;;5.18;2.00;;;;;;;18.63;57.21;100306.88;5085672;28;20749;-71
2023/04/18 10:36:11;;;;;;;4.10;1.98;;;;;;;18.60;56.55;100304.53;5086320;28;20024;-71
2023/04/18 10:38:46;;;;;;;5.40;2.25;;;;;;;18.61;56.81;100298.09;5088297;28;20028;-71
2023/04/18 10:41:21;;;;;;;5.40;1.63;;;;;;;18.72;55.98;100297.59;5079087;28;20031;-71
2023/04/18 10:46:49;;;;;;;5.15;2.28;;;;;;;18.74;56.73;100302.84;5086690;28;20043;-71
2023/04/18 10:49:23;;;;;;;4.30;1.95;;;;;;;18.65;55.74;100302.09;5086083;28;20023;-71
2023/04/18 10:51:51;;;;;;;2.88;1.45;;;;;;;18.60;56.20;100285.50;5088543;28;20028;-71
2023/04/18 10:54:31;;;;;;;6.07;2.17;;;;;;;18.49;57.07;100275.13;5088194;28;20032;-71
2023/04/18 10:57:00;;;;;;;4.60;1.95;;;;;;;18.51;57.94;100272.22;5087810;28;20042;-71
2023/04/18 10:59:28;;;;;;;4.70;2.28;;;;;;;18.53;57.60;100291.88;5089636;28;20032;-71
2023/04/18 11:02:25;;;;;;;4.97;2.33;;;;;;;18.55;57.84;100290.69;5088737;28;20490;-71
2023/04/18 11:04:59;;;;;;;3.90;2.20;;;;;;;18.63;56.81;100296.00;5086228;28;20048;-70
2023/04/18 11:07:39;;;;;;;5.53;2.80;;;;;;;18.61;54.84;100294.50;5089011;28;20706;-70
2023/04/18 11:10:07;;;;;;;7.85;2.47;;;;;;;18.58;55.60;100293.03;5061787;28;20069;-70
2023/04/18 11:12:35;;;;;;;5.03;2.22;;;;;;;18.57;55.76;100283.16;5092531;28;20427;-70
2023/04/18 11:15:03;;;;;;;4.78;1.92;;;;;;;18.59;54.18;100283.84;5089304;28;20036;-70
2023/04/18 11:17:32;;;;;;;5.15;2.40;;;;;;;18.60;54.20;100282.78;5087284;28;20028;-70
2023/04/18 11:20:06;;;;;;;3.83;1.95;;;;;;;18.68;53.69;100282.72;5072288;28;20048;-70
2023/04/18 11:22:31;;;;;;;3.47;2.17;;;;;;;18.68;53.12;100274.56;5084572;28;20097;-70